Time;durP1;ratioP1;P1;durP2;ratioP2;P2;SDS_P1;SDS_P2;PMS_P1;PMS_P2;Temp;Humidity;BMP_temperature;BMP_pressure;BME280_temperature;BME280_humidity;BME280_pressure;Samples;Min_cycle;Max_cycle;Signal;HPM_P1;HPM_P2
2023/10/20 00:01:58;;;;;;;6.85;2.80;;;15.30;92.30;;;;;;6225982;28;20054;-82
2023/10/20 00:05:00;;;;;;;7.05;3.00;;;15.30;92.30;;;;;;6227197;28;20396;-83
2023/10/20 00:08:02;;;;;;;6.20;2.33;;;15.30;92.30;;;;;;6226863;28;20057;-81
2023/10/20 00:11:04;;;;;;;7.65;2.17;;;15.20;92.30;;;;;;6226762;28;20049;-82
2023/10/20 00:14:06;;;;;;;7.75;2.40;;;15.20;92.30;;;;;;6220702;28;20089;-82
2023/10/20 00:17:07;;;;;;;6.90;2.08;;;15.20;92.30;;;;;;6226659;28;20057;-81
2023/10/20 00:20:09;;;;;;;7.18;2.80;;;15.20;92.30;;;;;;6226679;28;20061;-82
2023/10/20 00:23:11;;;;;;;7.95;3.28;;;15.20;92.30;;;;;;6226581;28;20528;-81
2023/10/20 00:26:13;;;;;;;8.07;2.30;;;15.20;92.30;;;;;;6226539;28;20060;-81
2023/10/20 00:29:15;;;;;;;6.85;2.35;;;15.10;92.30;;;;;;6224075;28;20073;-81
2023/10/20 00:32:19;;;;;;;6.65;2.40;;;15.20;92.30;;;;;;6225521;28;20107;-79
2023/10/20 00:35:20;;;;;;;8.18;2.50;;;15.20;92.30;;;;;;6226229;28;20049;-80
2023/10/20 00:38:22;;;;;;;7.30;2.38;;;15.10;92.30;;;;;;6227817;28;20421;-81
2023/10/20 00:41:24;;;;;;;5.60;2.25;;;15.10;92.30;;;;;;6226850;28;20046;-83
2023/10/20 00:44:25;;;;;;;6.90;2.13;;;15.20;92.30;;;;;;6227218;28;20113;-82
2023/10/20 00:47:27;;;;;;;7.80;2.63;;;15.10;92.30;;;;;;6228010;28;20045;-82
2023/10/20 00:50:30;;;;;;;6.43;2.47;;;15.10;92.30;;;;;;6227595;28;20441;-83
2023/10/20 00:53:32;;;;;;;7.13;2.55;;;15.20;92.40;;;;;;6226022;28;20449;-83
2023/10/20 00:56:34;;;;;;;5.97;2.50;;;15.10;92.40;;;;;;6227358;28;20049;-82
2023/10/20 00:59:35;;;;;;;9.63;2.53;;;15.10;92.40;;;;;;6220906;28;20057;-82
2023/10/20 01:02:37;;;;;;;6.35;2.22;;;15.10;92.30;;;;;;6223426;28;20494;-83
2023/10/20 01:05:39;;;;;;;7.43;2.85;;;15.10;92.30;;;;;;6222706;28;20804;-83
2023/10/20 01:08:40;;;;;;;9.00;3.65;;;15.00;92.30;;;;;;6222402;28;20509;-84
2023/10/20 01:11:42;;;;;;;7.93;3.00;;;15.00;92.30;;;;;;6221273;28;20109;-83
2023/10/20 01:14:44;;;;;;;8.77;2.85;;;15.00;92.40;;;;;;6204946;28;20141;-84
2023/10/20 01:17:45;;;;;;;4.90;2.78;;;15.00;92.30;;;;;;6220341;28;20077;-84
2023/10/20 01:20:47;;;;;;;10.25;2.80;;;15.00;92.30;;;;;;6221010;28;20049;-84
2023/10/20 01:23:49;;;;;;;8.57;2.90;;;15.00;92.60;;;;;;6220579;28;20545;-83
2023/10/20 01:26:51;;;;;;;7.10;2.90;;;15.00;92.40;;;;;;6222050;28;20057;-81
2023/10/20 01:29:52;;;;;;;8.77;3.67;;;15.00;92.40;;;;;;6218971;28;20061;-81
2023/10/20 01:32:54;;;;;;;11.70;5.40;;;15.10;92.40;;;;;;6221607;28;20057;-81
2023/10/20 01:35:55;;;;;;;9.05;4.32;;;15.10;92.40;;;;;;6220533;28;20053;-83
2023/10/20 01:38:57;;;;;;;12.15;5.22;;;15.10;92.40;;;;;;6221714;28;20053;-81
2023/10/20 01:41:59;;;;;;;9.82;4.75;;;15.10;92.50;;;;;;6221196;28;20058;-81
2023/10/20 01:45:01;;;;;;;10.10;5.15;;;15.10;92.30;;;;;;6219886;28;20057;-82
2023/10/20 01:48:03;;;;;;;6.80;4.15;;;15.20;92.50;;;;;;6219767;28;20433;-83
2023/10/20 01:51:07;;;;;;;8.25;5.10;;;15.20;92.50;;;;;;6221658;28;20060;-83
2023/10/20 01:54:09;;;;;;;10.57;4.68;;;15.30;92.60;;;;;;6221481;28;20057;-84
2023/10/20 01:57:10;;;;;;;9.70;5.25;;;15.30;92.60;;;;;;6221191;28;20057;-84
2023/10/20 02:00:15;;;;;;;13.48;5.10;;;15.30;92.60;;;;;;6218829;28;20060;-85
2023/10/20 02:03:17;;;;;;;7.88;4.85;;;15.30;92.60;;;;;;6220816;28;20145;-86
2023/10/20 02:06:19;;;;;;;9.30;5.30;;;15.30;92.60;;;;;;6220942;28;20062;-85
2023/10/20 02:09:21;;;;;;;10.57;5.45;;;15.30;92.60;;;;;;6221400;28;20046;-84
2023/10/20 02:12:23;;;;;;;10.23;5.00;;;15.20;92.60;;;;;;6218984;28;20066;-82
2023/10/20 02:15:25;;;;;;;7.07;5.03;;;15.30;92.60;;;;;;6214932;28;20058;-82
2023/10/20 02:18:26;;;;;;;11.65;5.45;;;15.30;92.60;;;;;;6220118;28;20069;-82
2023/10/20 02:21:29;;;;;;;10.20;5.10;;;15.40;92.60;;;;;;6220525;28;20050;-82
2023/10/20 02:24:30;;;;;;;12.48;5.85;;;15.40;92.60;;;;;;6220587;28;20057;-82
2023/10/20 02:27:32;;;;;;;9.35;6.00;;;15.40;92.60;;;;;;6219968;28;20413;-83
2023/10/20 02:30:34;;;;;;;9.95;5.80;;;15.50;92.70;;;;;;6218505;28;20065;-83
2023/10/20 02:33:36;;;;;;;12.95;6.15;;;15.50;92.70;;;;;;6196072;28;20046;-84
2023/10/20 02:36:37;;;;;;;11.13;6.25;;;15.50;92.70;;;;;;6227318;28;20054;-85
2023/10/20 02:39:39;;;;;;;9.82;5.90;;;15.50;92.70;;;;;;6218517;28;20421;-83
2023/10/20 02:42:43;;;;;;;11.68;6.70;;;15.50;92.70;;;;;;6219972;28;20569;-84
2023/10/20 02:45:45;;;;;;;10.25;6.57;;;15.60;92.70;;;;;;6219311;28;20089;-83
2023/10/20 02:48:47;;;;;;;10.23;6.85;;;15.50;92.70;;;;;;6196546;28;20053;-85
2023/10/20 02:51:49;;;;;;;11.07;6.57;;;15.50;92.70;;;;;;6227219;28;20069;-85
2023/10/20 02:54:53;;;;;;;11.63;6.35;;;15.50;92.70;;;;;;6219762;28;20440;-85
2023/10/20 02:57:54;;;;;;;10.27;5.93;;;15.50;92.70;;;;;;6212855;28;20696;-87
2023/10/20 03:00:56;;;;;;;8.25;5.18;;;15.50;92.70;;;;;;6219510;28;20112;-87
2023/10/20 03:03:58;;;;;;;10.90;5.00;;;15.50;92.70;;;;;;6196387;28;20062;-85
2023/10/20 03:07:00;;;;;;;6.32;3.80;;;15.60;92.70;;;;;;6218913;28;20054;-84
2023/10/20 03:10:02;;;;;;;6.65;3.58;;;15.50;92.80;;;;;;6219932;28;20058;-86
2023/10/20 03:13:07;;;;;;;4.63;2.20;;;15.50;92.80;;;;;;6213969;28;20053;-87
2023/10/20 03:16:08;;;;;;;3.80;2.20;;;15.40;92.80;;;;;;6219263;28;20068;-86
2023/10/20 03:19:11;;;;;;;3.15;1.70;;;15.40;92.80;;;;;;6218160;28;20426;-87
2023/10/20 03:22:13;;;;;;;3.90;1.70;;;15.40;92.70;;;;;;6218635;28;20429;-83
2023/10/20 03:25:15;;;;;;;4.00;1.70;;;15.30;92.70;;;;;;6220238;28;20054;-88
2023/10/20 03:28:16;;;;;;;2.88;1.40;;;15.30;92.70;;;;;;6217127;28;20489;-85
2023/10/20 03:31:18;;;;;;;2.85;1.30;;;15.30;92.70;;;;;;6218747;28;20060;-85
2023/10/20 03:34:20;;;;;;;2.00;1.00;;;15.30;92.70;;;;;;6219928;28;20090;-86
2023/10/20 03:37:22;;;;;;;2.88;0.90;;;15.20;92.70;;;;;;6218116;28;20520;-85
2023/10/20 03:40:24;;;;;;;4.07;0.80;;;15.10;92.70;;;;;;6220046;28;20058;-85
2023/10/20 03:43:27;;;;;;;2.75;0.70;;;15.00;92.60;;;;;;6217811;28;20050;-85
2023/10/20 03:46:30;;;;;;;2.63;0.63;;;15.00;92.60;;;;;;6218926;28;20085;-86
2023/10/20 03:49:35;;;;;;;1.80;0.60;;;14.80;92.50;;;;;;6218250;28;20077;-85
2023/10/20 03:52:37;;;;;;;1.17;0.57;;;14.80;92.50;;;;;;6219742;28;20081;-85
2023/10/20 03:55:39;;;;;;;0.93;0.50;;;14.80;92.50;;;;;;6219365;28;20065;-86
2023/10/20 03:58:42;;;;;;;3.35;0.70;;;14.70;92.50;;;;;;6216379;28;20103;-85
2023/10/20 04:01:44;;;;;;;1.55;0.50;;;14.70;92.50;;;;;;6219442;28;20057;-85
2023/10/20 04:04:46;;;;;;;1.60;0.52;;;14.60;92.40;;;;;;6219687;28;20099;-86
2023/10/20 04:07:48;;;;;;;1.33;0.50;;;14.60;92.30;;;;;;6218763;28;20046;-85
2023/10/20 04:10:50;;;;;;;1.20;0.40;;;14.50;92.20;;;;;;6218325;28;20058;-85
2023/10/20 04:13:51;;;;;;;1.70;0.60;;;14.40;92.10;;;;;;6208822;28;20060;-86
2023/10/20 04:16:54;;;;;;;1.10;0.50;;;14.40;92.10;;;;;;6219879;28;20136;-87
2023/10/20 04:19:56;;;;;;;2.53;0.80;;;14.40;92.10;;;;;;6219730;28;20107;-86
2023/10/20 04:22:58;;;;;;;6.20;0.85;;;14.40;92.10;;;;;;6219328;28;20498;-85
2023/10/20 04:26:00;;;;;;;2.67;0.60;;;14.30;92.10;;;;;;6218517;28;20054;-85
2023/10/20 04:29:23;;;;;;;1.75;0.63;;;14.30;92.10;;;;;;6214550;28;20069;-87
2023/10/20 04:58:14;;;;;;;4.85;1.17;;;14.10;92.30;;;;;;6221392;28;20049;-90
2023/10/20 05:01:40;;;;;;;4.75;1.63;;;14.10;92.40;;;;;;6223302;28;20068;-89
2023/10/20 05:04:46;;;;;;;4.65;1.45;;;14.10;92.40;;;;;;6198700;28;20180;-90
2023/10/20 05:07:50;;;;;;;3.83;1.10;;;14.10;92.40;;;;;;6239663;28;20587;-89
2023/10/20 05:10:54;;;;;;;3.85;1.25;;;14.10;92.40;;;;;;6224099;28;20076;-90
2023/10/20 05:13:55;;;;;;;3.72;1.67;;;14.10;92.40;;;;;;6219284;28;20058;-88
2023/10/20 05:16:57;;;;;;;4.43;1.60;;;14.20;92.50;;;;;;6222785;28;20061;-88
2023/10/20 05:19:59;;;;;;;6.05;1.83;;;14.10;92.40;;;;;;6222509;28;20065;-89
2023/10/20 05:23:00;;;;;;;3.78;1.63;;;14.20;92.50;;;;;;6222700;28;20438;-88
2023/10/20 05:26:02;;;;;;;3.47;1.73;;;14.20;92.50;;;;;;6222660;28;20414;-90
2023/10/20 05:29:04;;;;;;;7.32;1.60;;;14.20;92.50;;;;;;6220510;28;20054;-89
2023/10/20 05:32:06;;;;;;;6.80;1.58;;;14.20;92.50;;;;;;6222977;28;20056;-88
2023/10/20 05:35:09;;;;;;;4.90;1.58;;;14.20;92.50;;;;;;6224521;28;20061;-89
2023/10/20 05:38:11;;;;;;;7.00;2.10;;;14.20;92.50;;;;;;6222071;28;20062;-89
2023/10/20 05:41:12;;;;;;;4.18;1.45;;;14.20;92.50;;;;;;6222977;28;20050;-88
2023/10/20 05:44:17;;;;;;;2.90;1.20;;;14.20;92.50;;;;;;6221813;28;20056;-88
2023/10/20 05:47:20;;;;;;;3.20;1.23;;;14.20;92.50;;;;;;6221463;28;20124;-88
2023/10/20 05:50:22;;;;;;;3.10;1.00;;;14.30;92.80;;;;;;6222467;28;20600;-87
2023/10/20 05:53:26;;;;;;;3.20;1.40;;;14.30;92.50;;;;;;6221213;28;20085;-87
2023/10/20 05:56:28;;;;;;;4.07;1.23;;;14.30;92.70;;;;;;6221233;28;20104;-89
2023/10/20 05:59:30;;;;;;;2.50;0.70;;;14.20;92.40;;;;;;6219916;28;20054;-87
2023/10/20 06:02:32;;;;;;;3.75;0.70;;;14.30;92.50;;;;;;6222404;28;20070;-88
2023/10/20 06:05:34;;;;;;;4.82;0.77;;;14.30;92.40;;;;;;6222476;28;20052;-87
2023/10/20 06:08:35;;;;;;;1.63;0.50;;;14.20;92.40;;;;;;6221000;28;20101;-87
2023/10/20 06:11:38;;;;;;;2.40;0.68;;;14.20;92.30;;;;;;6221354;28;20049;-87
2023/10/20 06:14:40;;;;;;;2.58;0.70;;;14.30;92.30;;;;;;6204155;28;20062;-87
2023/10/20 06:17:42;;;;;;;1.20;0.70;;;14.30;92.20;;;;;;6220528;28;20517;-87
2023/10/20 06:20:44;;;;;;;2.08;0.60;;;14.30;92.20;;;;;;6221831;28;20063;-86
2023/10/20 06:23:46;;;;;;;3.63;0.60;;;14.20;92.20;;;;;;6221412;28;20050;-87
2023/10/20 06:26:48;;;;;;;3.13;0.82;;;14.30;92.10;;;;;;6222855;28;20060;-86
2023/10/20 06:30:05;;;;;;;1.30;0.68;;;14.30;92.20;;;;;;6218117;28;20223;-86
2023/10/20 06:33:16;;;;;;;1.08;0.50;;;14.40;92.20;;;;;;6196446;28;20050;-85
2023/10/20 06:36:24;;;;;;;2.33;1.00;;;14.30;92.10;;;;;;6196339;28;20054;-85
2023/10/20 06:39:26;;;;;;;3.10;0.70;;;14.20;92.10;;;;;;6196915;28;20065;-84
2023/10/20 06:42:28;;;;;;;1.45;0.60;;;14.30;92.10;;;;;;6194761;28;20053;-85
2023/10/20 06:45:31;;;;;;;1.45;0.70;;;14.30;92.10;;;;;;6195364;28;20538;-81
2023/10/20 06:48:33;;;;;;;4.05;0.80;;;14.40;92.20;;;;;;6197424;28;20061;-86
2023/10/20 06:51:37;;;;;;;1.80;0.85;;;14.40;92.20;;;;;;6220105;28;20625;-85
2023/10/20 06:54:38;;;;;;;3.33;0.80;;;14.40;92.10;;;;;;6220241;28;20064;-85
2023/10/20 06:57:41;;;;;;;2.72;0.80;;;14.30;91.90;;;;;;6220549;28;20057;-85
2023/10/20 07:00:44;;;;;;;1.30;0.50;;;14.30;92.00;;;;;;6218215;28;20088;-87
2023/10/20 07:03:46;;;;;;;1.65;0.80;;;14.20;92.00;;;;;;6219607;28;20064;-87
2023/10/20 07:06:49;;;;;;;5.15;0.85;;;14.20;92.00;;;;;;6218514;28;20520;-84
2023/10/20 07:09:50;;;;;;;2.22;0.80;;;14.10;91.80;;;;;;6217849;28;20509;-84
2023/10/20 07:12:52;;;;;;;1.73;0.60;;;14.10;91.90;;;;;;6216970;28;20046;-86
2023/10/20 07:15:56;;;;;;;3.17;0.80;;;14.10;91.90;;;;;;6216405;28;20069;-86
2023/10/20 07:18:58;;;;;;;3.08;0.80;;;14.20;92.00;;;;;;6218042;28;20486;-85
2023/10/20 07:22:02;;;;;;;4.97;0.90;;;14.10;91.80;;;;;;6218492;28;20053;-85
2023/10/20 07:25:04;;;;;;;5.47;1.75;;;14.10;92.00;;;;;;6220768;28;20145;-85
2023/10/20 07:28:07;;;;;;;2.72;0.80;;;14.10;91.70;;;;;;6218724;28;20136;-85
2023/10/20 07:31:08;;;;;;;1.90;0.70;;;14.10;91.60;;;;;;6218268;28;20135;-85
2023/10/20 07:34:10;;;;;;;1.75;0.70;;;14.20;91.50;;;;;;6218316;28;20062;-84
2023/10/20 07:37:12;;;;;;;2.70;0.70;;;14.10;91.50;;;;;;6219374;28;20147;-85
2023/10/20 07:40:13;;;;;;;3.38;0.60;;;14.20;91.60;;;;;;6219892;28;20405;-89
2023/10/20 07:43:15;;;;;;;1.58;0.60;;;14.20;91.50;;;;;;6219520;28;20564;-90
2023/10/20 07:46:17;;;;;;;2.40;0.50;;;14.20;91.10;;;;;;6222014;28;20058;-85
2023/10/20 07:49:19;;;;;;;2.85;0.70;;;14.20;91.00;;;;;;6218186;28;20085;-85
2023/10/20 07:52:20;;;;;;;1.60;0.60;;;14.30;91.20;;;;;;6218770;28;20445;-77
2023/10/20 07:55:22;;;;;;;1.73;0.70;;;14.20;91.00;;;;;;6222888;28;20421;-84
2023/10/20 07:58:24;;;;;;;1.92;0.73;;;14.30;91.20;;;;;;6220326;28;20057;-82
2023/10/20 08:01:25;;;;;;;2.47;0.90;;;14.30;91.30;;;;;;6219114;28;20103;-83
2023/10/20 08:04:27;;;;;;;2.40;0.98;;;14.40;91.30;;;;;;6218899;28;20069;-84
2023/10/20 08:07:29;;;;;;;5.00;1.00;;;14.40;91.20;;;;;;6222657;28;20054;-79
2023/10/20 08:10:31;;;;;;;3.90;0.95;;;14.40;91.20;;;;;;6222865;28;20064;-79
2023/10/20 08:13:35;;;;;;;4.15;1.30;;;14.40;91.00;;;;;;6220552;28;20128;-83
2023/10/20 08:16:38;;;;;;;3.33;1.27;;;14.40;90.90;;;;;;6222040;28;20120;-83
2023/10/20 08:19:39;;;;;;;3.55;1.30;;;14.50;90.60;;;;;;6223214;28;20529;-80
2023/10/20 08:22:41;;;;;;;2.40;1.40;;;14.50;91.00;;;;;;6221641;28;20053;-81
2023/10/20 08:25:43;;;;;;;2.97;1.50;;;14.60;91.20;;;;;;6221476;28;20119;-83
2023/10/20 08:28:44;;;;;;;3.00;1.40;;;14.50;90.50;;;;;;6218600;28;20058;-82
2023/10/20 08:31:46;;;;;;;2.40;1.30;;;14.50;90.70;;;;;;6222783;28;20057;-86
2023/10/20 08:34:48;;;;;;;3.53;1.40;;;14.50;90.80;;;;;;6222005;28;20061;-81
2023/10/20 08:37:50;;;;;;;2.90;1.30;;;14.50;91.00;;;;;;6221230;28;20056;-82
2023/10/20 08:40:51;;;;;;;3.53;1.45;;;14.60;91.00;;;;;;6221485;28;20637;-83
2023/10/20 08:43:56;;;;;;;2.30;1.10;;;14.60;90.90;;;;;;6198783;28;20058;-79
2023/10/20 08:46:58;;;;;;;3.05;1.00;;;14.70;90.70;;;;;;6215542;28;20054;-80
2023/10/20 08:49:59;;;;;;;2.65;1.23;;;14.70;90.80;;;;;;6200435;28;20065;-80
2023/10/20 08:53:01;;;;;;;3.08;1.13;;;14.70;90.80;;;;;;6222770;28;20212;-87
2023/10/20 08:56:03;;;;;;;2.72;1.27;;;14.60;90.30;;;;;;6207201;28;20061;-82
2023/10/20 08:59:05;;;;;;;3.03;1.23;;;14.60;90.50;;;;;;6220287;28;20065;-78
2023/10/20 09:02:08;;;;;;;3.58;1.20;;;14.60;90.50;;;;;;6214983;28;20050;-79
2023/10/20 09:05:10;;;;;;;2.75;1.27;;;14.60;90.70;;;;;;6221987;28;20050;-78
2023/10/20 09:08:12;;;;;;;3.58;1.63;;;14.60;90.80;;;;;;6198161;28;20062;-84
2023/10/20 09:11:13;;;;;;;5.00;2.28;;;14.60;90.90;;;;;;6224021;28;20139;-83
2023/10/20 09:14:15;;;;;;;4.70;2.17;;;14.60;90.80;;;;;;6208287;28;20144;-83
2023/10/20 09:17:17;;;;;;;4.85;2.45;;;14.60;91.10;;;;;;6222136;28;20046;-83
2023/10/20 09:20:19;;;;;;;5.55;2.90;;;14.60;90.70;;;;;;6223262;28;20521;-84
2023/10/20 09:23:20;;;;;;;7.53;3.17;;;14.60;91.10;;;;;;6220612;28;20151;-84
2023/10/20 09:26:22;;;;;;;7.38;3.65;;;14.50;91.10;;;;;;6220099;28;20057;-83
2023/10/20 09:29:24;;;;;;;7.40;3.85;;;14.40;91.20;;;;;;6218804;28;20053;-85
2023/10/20 09:32:25;;;;;;;8.27;4.03;;;14.50;91.50;;;;;;6220653;28;20057;-86
2023/10/20 09:35:29;;;;;;;7.47;4.18;;;14.50;91.40;;;;;;6223020;28;20046;-83
2023/10/20 09:38:30;;;;;;;8.27;4.50;;;14.50;91.50;;;;;;6219877;28;20058;-86
2023/10/20 09:41:32;;;;;;;7.35;3.90;;;14.60;91.80;;;;;;6220408;28;20056;-86
2023/10/20 09:44:34;;;;;;;7.18;3.72;;;14.60;91.70;;;;;;6218707;28;20072;-85
2023/10/20 09:47:35;;;;;;;5.93;3.35;;;14.60;91.50;;;;;;6219665;28;20056;-85
2023/10/20 09:50:37;;;;;;;7.47;3.50;;;14.60;91.30;;;;;;6219986;28;20192;-85
2023/10/20 09:53:39;;;;;;;6.95;3.63;;;14.70;91.70;;;;;;6220427;28;20064;-84
2023/10/20 09:56:42;;;;;;;5.43;3.17;;;14.90;91.30;;;;;;6220591;28;20421;-83
2023/10/20 09:59:44;;;;;;;5.60;3.00;;;15.00;91.50;;;;;;6216886;28;20127;-84
2023/10/20 10:02:46;;;;;;;5.53;2.97;;;14.90;90.30;;;;;;6220846;28;20056;-83
2023/10/20 10:05:47;;;;;;;4.50;2.40;;;15.00;90.70;;;;;;6220049;28;20053;-84
2023/10/20 10:08:51;;;;;;;5.18;2.65;;;14.90;90.30;;;;;;6219178;28;20062;-84
2023/10/20 10:11:52;;;;;;;4.30;2.30;;;14.90;90.80;;;;;;6220602;28;20054;-81
2023/10/20 10:14:54;;;;;;;6.20;2.00;;;14.90;90.50;;;;;;6214261;28;20521;-80
2023/10/20 10:17:57;;;;;;;4.43;1.77;;;14.80;90.20;;;;;;6217316;28;20461;-86
2023/10/20 10:21:01;;;;;;;3.83;1.75;;;14.80;90.60;;;;;;6220379;28;20050;-86
2023/10/20 10:24:05;;;;;;;3.53;1.98;;;14.90;90.90;;;;;;6208362;28;20054;-84
2023/10/20 10:27:13;;;;;;;3.92;1.80;;;15.00;90.50;;;;;;6217509;28;20167;-81
2023/10/20 10:30:17;;;;;;;6.03;1.98;;;15.00;90.60;;;;;;6218021;28;20045;-82
2023/10/20 10:33:19;;;;;;;3.17;1.60;;;15.00;90.70;;;;;;6218695;28;20058;-83
2023/10/20 10:36:21;;;;;;;4.07;1.70;;;15.10;90.80;;;;;;6220313;28;20057;-81
2023/10/20 10:39:27;;;;;;;3.60;1.45;;;15.10;90.70;;;;;;6194874;28;20494;-85
2023/10/20 10:42:29;;;;;;;3.65;1.52;;;15.10;90.20;;;;;;6213881;28;20053;-80
2023/10/20 10:45:31;;;;;;;3.85;1.30;;;15.10;90.10;;;;;;6216981;28;20056;-79
2023/10/20 10:48:34;;;;;;;4.07;1.77;;;15.10;90.00;;;;;;6220755;28;20109;-83
2023/10/20 10:51:36;;;;;;;2.60;1.38;;;15.20;90.00;;;;;;6207737;28;20054;-90
2023/10/20 10:54:37;;;;;;;4.18;1.42;;;15.40;90.10;;;;;;6197136;28;20168;-81
2023/10/20 10:57:39;;;;;;;2.83;1.40;;;15.50;90.10;;;;;;6217401;28;20061;-87
2023/10/20 11:00:40;;;;;;;2.85;1.30;;;15.60;88.80;;;;;;6199179;28;20061;-84
2023/10/20 11:03:42;;;;;;;3.55;1.20;;;15.70;88.20;;;;;;6195609;28;20061;-81
2023/10/20 11:06:44;;;;;;;5.35;1.30;;;15.70;87.50;;;;;;6219229;28;20395;-84
2023/10/20 11:09:46;;;;;;;2.42;1.05;;;15.70;84.60;;;;;;6218207;28;20052;-83
2023/10/20 11:12:47;;;;;;;1.98;0.85;;;15.70;84.80;;;;;;6217069;28;20060;-79
2023/10/20 11:15:49;;;;;;;2.58;1.00;;;15.70;83.80;;;;;;6217566;28;20328;-83
2023/10/20 11:18:51;;;;;;;4.35;0.90;;;15.70;81.50;;;;;;6217976;28;20076;-81
2023/10/20 11:21:53;;;;;;;3.30;0.80;;;15.70;81.20;;;;;;6217016;28;20061;-79
2023/10/20 11:24:54;;;;;;;3.78;1.02;;;15.70;82.70;;;;;;6215663;28;20091;-82
2023/10/20 11:27:56;;;;;;;2.08;1.17;;;15.60;81.50;;;;;;6214689;28;20053;-82
2023/10/20 11:30:59;;;;;;;1.63;0.60;;;15.60;81.40;;;;;;6217703;28;20141;-83
2023/10/20 11:34:01;;;;;;;1.95;0.80;;;15.60;79.60;;;;;;6219074;28;20050;-80
2023/10/20 11:37:03;;;;;;;2.67;0.90;;;15.50;81.30;;;;;;6212116;28;20183;-81
2023/10/20 11:40:04;;;;;;;2.53;0.80;;;15.50;81.90;;;;;;6218496;28;20053;-82
2023/10/20 11:43:06;;;;;;;3.88;0.90;;;15.60;82.10;;;;;;6217812;28;20056;-84
2023/10/20 11:46:11;;;;;;;3.38;1.00;;;15.50;81.70;;;;;;6217277;28;20061;-82
2023/10/20 11:49:13;;;;;;;2.85;1.30;;;15.60;82.10;;;;;;6217782;28;20143;-78
2023/10/20 11:52:14;;;;;;;2.88;1.30;;;15.60;81.70;;;;;;6217882;28;20510;-78
2023/10/20 11:55:16;;;;;;;3.08;1.30;;;15.70;82.70;;;;;;6218486;28;20398;-77
2023/10/20 11:58:18;;;;;;;2.90;1.30;;;15.80;81.40;;;;;;6217493;28;20042;-83
2023/10/20 12:01:19;;;;;;;3.35;1.60;;;15.90;81.40;;;;;;6217636;28;20058;-83
2023/10/20 12:04:21;;;;;;;3.05;1.70;;;15.90;81.40;;;;;;6217405;28;20076;-86
2023/10/20 12:07:23;;;;;;;5.50;2.25;;;15.80;79.10;;;;;;6218520;28;20121;-81
2023/10/20 12:10:27;;;;;;;4.55;2.20;;;15.80;79.60;;;;;;6218146;28;20053;-82
2023/10/20 12:13:28;;;;;;;4.18;2.10;;;15.70;77.10;;;;;;6215384;28;20525;-83
2023/10/20 12:16:30;;;;;;;4.38;2.10;;;15.80;79.80;;;;;;6218416;28;20513;-82
2023/10/20 12:19:32;;;;;;;3.83;1.95;;;15.80;79.20;;;;;;6216192;28;20062;-83
2023/10/20 12:22:33;;;;;;;3.17;1.63;;;15.90;78.00;;;;;;6218140;28;20054;-83
2023/10/20 12:25:36;;;;;;;3.75;2.08;;;16.00;78.70;;;;;;6215506;28;20065;-82
2023/10/20 12:28:37;;;;;;;4.10;1.73;;;16.10;79.80;;;;;;6216992;28;20328;-82
2023/10/20 12:31:39;;;;;;;3.83;1.80;;;16.20;79.20;;;;;;6216776;28;20057;-82
2023/10/20 12:34:41;;;;;;;4.65;2.00;;;16.30;78.10;;;;;;6216756;28;20524;-82
2023/10/20 12:37:42;;;;;;;4.22;1.65;;;16.30;77.60;;;;;;6218074;28;20069;-84
2023/10/20 12:40:44;;;;;;;6.00;1.85;;;16.40;76.80;;;;;;6217231;28;20085;-81
2023/10/20 12:43:47;;;;;;;3.83;1.67;;;16.30;73.00;;;;;;6213800;28;20046;-81
2023/10/20 12:46:50;;;;;;;4.43;1.70;;;16.30;75.90;;;;;;6218093;28;20054;-80
2023/10/20 12:49:52;;;;;;;4.10;1.58;;;16.20;77.90;;;;;;6217302;28;20052;-80
2023/10/20 12:52:53;;;;;;;3.30;1.70;;;16.10;80.80;;;;;;6218189;28;20685;-81
2023/10/20 12:55:55;;;;;;;3.63;1.83;;;16.00;77.40;;;;;;6198489;28;20513;-81
2023/10/20 12:58:56;;;;;;;5.25;1.50;;;16.10;82.90;;;;;;6220059;28;20063;-83
2023/10/20 13:01:58;;;;;;;3.92;1.40;;;16.30;83.00;;;;;;6221985;28;20124;-83
2023/10/20 13:05:00;;;;;;;4.82;1.50;;;16.50;76.80;;;;;;6220601;28;20057;-84
2023/10/20 13:08:01;;;;;;;4.93;1.75;;;16.60;71.60;;;;;;6221619;28;20153;-85
2023/10/20 13:11:04;;;;;;;4.60;1.67;;;16.70;70.20;;;;;;6221943;28;20085;-84
2023/10/20 13:14:06;;;;;;;2.83;1.27;;;16.80;75.70;;;;;;6215291;28;20452;-84
2023/10/20 13:17:08;;;;;;;4.47;1.80;;;16.90;75.60;;;;;;6221743;28;20062;-84
2023/10/20 13:20:11;;;;;;;4.60;2.00;;;16.90;74.60;;;;;;6221056;28;20054;-82
2023/10/20 13:23:13;;;;;;;3.95;1.50;;;16.90;70.70;;;;;;6197658;28;20403;-83
2023/10/20 13:26:14;;;;;;;5.47;1.80;;;17.10;67.50;;;;;;6222348;28;20068;-83
2023/10/20 13:29:16;;;;;;;3.40;1.60;;;17.20;75.50;;;;;;6218846;28;20169;-84
2023/10/20 13:32:18;;;;;;;2.72;1.02;;;17.40;72.00;;;;;;6220072;28;20053;-82
2023/10/20 13:35:21;;;;;;;2.40;0.80;;;17.50;65.00;;;;;;6221707;28;20440;-84
2023/10/20 13:38:23;;;;;;;2.45;0.90;;;18.00;59.00;;;;;;6221245;28;20449;-85
2023/10/20 13:41:28;;;;;;;2.10;0.90;;;18.60;56.20;;;;;;6221449;28;20058;-87
2023/10/20 13:44:29;;;;;;;2.40;0.68;;;19.00;36.20;;;;;;6219818;28;20100;-85
2023/10/20 13:47:31;;;;;;;3.40;1.27;;;19.10;39.40;;;;;;6219762;28;20133;-84
2023/10/20 13:50:33;;;;;;;2.85;0.80;;;18.90;49.40;;;;;;6219313;28;20176;-83
2023/10/20 13:53:35;;;;;;;5.25;0.90;;;18.90;53.70;;;;;;6220036;28;20069;-84
2023/10/20 13:56:37;;;;;;;2.28;0.70;;;19.00;43.30;;;;;;6221807;28;20058;-86
2023/10/20 13:59:39;;;;;;;1.58;0.70;;;19.50;40.00;;;;;;6219568;28;20053;-85
2023/10/20 14:02:41;;;;;;;3.67;0.80;;;20.10;33.30;;;;;;6220422;28;20116;-83
2023/10/20 14:05:43;;;;;;;1.70;0.70;;;20.20;24.80;;;;;;6220130;28;20054;-82
2023/10/20 14:08:45;;;;;;;1.60;0.70;;;20.50;13.30;;;;;;6219321;28;20140;-86
2023/10/20 14:11:47;;;;;;;1.60;0.60;;;21.10;6.10;;;;;;6209277;28;20053;-85
2023/10/20 14:14:49;;;;;;;3.05;1.00;;;21.30;6.30;;;;;;6214167;28;20128;-84
2023/10/20 14:17:50;;;;;;;1.63;0.80;;;21.50;10.30;;;;;;6219941;28;20386;-85
2023/10/20 14:20:55;;;;;;;1.67;0.70;;;21.90;1.00;;;;;;6219448;28;20057;-85
2023/10/20 14:23:58;;;;;;;1.35;0.65;;;21.80;1.00;;;;;;6196733;28;20062;-86
2023/10/20 14:27:00;;;;;;;0.85;0.50;;;21.50;1.00;;;;;;6212261;28;20089;-85
2023/10/20 14:30:02;;;;;;;0.95;0.50;;;21.50;1.00;;;;;;6209586;28;20093;-85
2023/10/20 14:33:04;;;;;;;1.50;0.60;;;21.50;1.00;;;;;;6219846;28;20599;-87
2023/10/20 14:36:05;;;;;;;1.02;0.57;;;21.40;1.00;;;;;;6223202;28;20057;-86
2023/10/20 14:39:07;;;;;;;1.58;0.52;;;20.60;1.00;;;;;;6220689;28;20049;-84
2023/10/20 14:42:09;;;;;;;1.73;0.60;;;19.90;1.20;;;;;;6211525;28;20068;-81
2023/10/20 14:45:11;;;;;;;1.35;0.60;;;19.50;1.00;;;;;;6218894;28;20497;-84
2023/10/20 14:48:13;;;;;;;3.22;0.65;;;19.20;1.00;;;;;;6212110;28;20136;-83
2023/10/20 14:51:15;;;;;;;1.90;0.70;;;19.10;11.20;;;;;;6196702;28;20058;-84
2023/10/20 14:54:16;;;;;;;2.78;1.00;;;19.20;1.00;;;;;;6199308;28;20092;-83
2023/10/20 14:57:18;;;;;;;2.10;0.60;;;19.00;1.40;;;;;;6219934;28;20050;-84
2023/10/20 15:00:20;;;;;;;1.58;0.65;;;18.80;5.30;;;;;;6218872;28;20069;-83
2023/10/20 15:03:21;;;;;;;1.77;0.63;;;18.70;6.10;;;;;;6221727;28;20581;-83
2023/10/20 15:06:23;;;;;;;4.03;0.90;;;18.50;4.60;;;;;;6221108;28;20056;-84
2023/10/20 15:09:25;;;;;;;1.98;0.70;;;18.50;11.70;;;;;;6221757;28;20050;-84
2023/10/20 15:12:27;;;;;;;2.53;0.93;;;18.40;6.90;;;;;;6222300;28;20064;-85
2023/10/20 15:15:28;;;;;;;2.05;0.70;;;18.50;10.40;;;;;;6219097;28;20490;-83
2023/10/20 15:18:30;;;;;;;2.72;0.60;;;18.40;5.90;;;;;;6222853;28;20060;-83
2023/10/20 15:21:32;;;;;;;1.40;0.60;;;18.30;3.90;;;;;;6221988;28;20448;-86
2023/10/20 15:24:34;;;;;;;2.15;0.63;;;18.00;1.00;;;;;;6199221;28;20151;-85
2023/10/20 15:27:36;;;;;;;5.00;0.77;;;17.90;13.20;;;;;;6228875;28;20061;-84
2023/10/20 15:30:38;;;;;;;2.70;0.70;;;17.70;19.60;;;;;;6220311;28;20140;-83
2023/10/20 15:33:40;;;;;;;3.30;0.85;;;17.60;16.40;;;;;;6218731;28;20060;-83
2023/10/20 15:36:42;;;;;;;1.52;0.60;;;17.60;20.00;;;;;;6221147;28;20131;-85
2023/10/20 15:39:43;;;;;;;2.50;0.70;;;17.50;21.10;;;;;;6222845;28;20058;-84
2023/10/20 15:43:01;;;;;;;1.85;0.70;;;17.40;19.20;;;;;;6198543;28;20042;-86
2023/10/20 15:46:03;;;;;;;1.42;0.60;;;17.30;22.20;;;;;;6219326;28;20061;-84
2023/10/20 15:49:05;;;;;;;2.05;0.80;;;17.10;22.00;;;;;;6218885;28;20114;-83
2023/10/20 15:52:06;;;;;;;2.60;0.95;;;17.10;24.40;;;;;;6218843;28;20537;-82
2023/10/20 15:55:09;;;;;;;2.88;0.82;;;17.00;25.10;;;;;;6220097;28;20050;-83
2023/10/20 15:58:15;;;;;;;3.30;1.10;;;16.90;29.30;;;;;;6215442;28;20046;-83
2023/10/20 16:01:17;;;;;;;2.65;0.80;;;16.80;33.00;;;;;;6219772;28;20490;-85
2023/10/20 16:04:18;;;;;;;3.83;1.15;;;16.70;33.90;;;;;;6219128;28;20410;-84
2023/10/20 16:07:20;;;;;;;5.03;1.13;;;16.60;36.50;;;;;;6219457;28;20069;-84
2023/10/20 16:10:22;;;;;;;3.03;1.00;;;16.50;39.20;;;;;;6219705;28;20049;-84
2023/10/20 16:13:24;;;;;;;4.78;1.20;;;16.40;43.60;;;;;;6218410;28;20053;-82
2023/10/20 16:16:25;;;;;;;3.25;1.20;;;16.30;41.50;;;;;;6220256;28;20050;-83